Time;durP1;ratioP1;P1;durP2;ratioP2;P2;SDS_P1;SDS_P2;PMS_P1;PMS_P2;Temp;Humidity;BMP_temperature;BMP_pressure;BME280_temperature;BME280_humidity;BME280_pressure;Samples;Min_cycle;Max_cycle;Signal;HPM_P1;HPM_P2
2022/08/12 00:44:24;;;;;;;0.10;0.10;;;16.40;99.90;;;;;;4891603;29;20536;-93
2022/08/12 00:46:53;;;;;;;0.10;0.10;;;16.30;99.90;;;;;;4892059;29;20453;-93
2022/08/12 00:49:22;;;;;;;0.10;0.10;;;16.30;99.90;;;;;;4891726;29;20508;-93
2022/08/12 00:52:05;;;;;;;0.10;0.10;;;16.40;99.90;;;;;;4888604;29;20956;-93
2022/08/12 00:54:34;;;;;;;0.10;0.10;;;16.40;99.90;;;;;;4888523;29;20457;-93
2022/08/12 00:57:04;;;;;;;0.10;0.10;;;16.40;99.90;;;;;;4892836;29;20453;-94
2022/08/12 00:59:30;;;;;;;0.10;0.10;;;16.30;99.90;;;;;;4891341;29;20485;-93
2022/08/12 01:02:00;;;;;;;0.10;0.10;;;16.30;99.90;;;;;;4884927;29;21035;-93
2022/08/12 01:12:43;;;;;;;0.10;0.10;;;16.10;99.90;;;;;;4894259;29;20475;-94
2022/08/12 01:15:12;;;;;;;0.10;0.10;;;16.10;99.90;;;;;;4893404;29;21009;-94
2022/08/12 01:17:43;;;;;;;0.10;0.10;;;16.10;99.90;;;;;;4889275;29;20200;-93
2022/08/12 01:20:17;;;;;;;0.10;0.10;;;16.10;99.90;;;;;;4891167;29;20993;-94
2022/08/12 01:23:23;;;;;;;0.10;0.10;;;16.00;99.90;;;;;;4889528;29;20438;-93
2022/08/12 01:25:52;;;;;;;0.10;0.10;;;15.70;99.90;;;;;;4884834;29;21143;-93
2022/08/12 01:28:19;;;;;;;0.10;0.10;;;15.80;99.90;;;;;;4889037;29;20449;-94
2022/08/12 01:30:48;;;;;;;0.10;0.10;;;15.90;99.90;;;;;;4896227;29;20452;-93
2022/08/12 01:33:20;;;;;;;0.10;0.10;;;15.90;99.90;;;;;;4893509;29;20449;-93
2022/08/12 01:35:53;;;;;;;0.10;0.10;;;15.70;99.90;;;;;;4898281;29;20539;-93
2022/08/12 01:38:20;;;;;;;0.10;0.10;;;15.60;99.90;;;;;;4896608;29;20815;-93
2022/08/12 01:40:46;;;;;;;0.10;0.10;;;15.70;99.90;;;;;;4896853;29;20469;-94
2022/08/12 01:43:16;;;;;;;0.10;0.10;;;15.60;99.90;;;;;;4899492;29;20451;-94
2022/08/12 01:46:08;;;;;;;0.10;0.10;;;15.60;99.90;;;;;;4886995;29;20969;-94
2022/08/12 01:48:52;;;;;;;0.10;0.10;;;15.70;99.90;;;;;;4891024;29;20476;-93
2022/08/12 01:51:42;;;;;;;0.10;0.10;;;15.60;99.90;;;;;;4896628;29;20456;-93
2022/08/12 01:54:16;;;;;;;0.10;0.10;;;15.50;99.90;;;;;;4894745;29;20512;-93
2022/08/12 01:57:05;;;;;;;0.10;0.10;;;15.50;99.90;;;;;;4897417;29;20493;-95
2022/08/12 01:59:46;;;;;;;0.10;0.10;;;15.40;99.90;;;;;;4892525;29;20576;-93
2022/08/12 02:02:30;;;;;;;0.10;0.10;;;15.40;99.90;;;;;;4895408;29;20492;-94
2022/08/12 02:11:30;;;;;;;0.10;0.10;;;15.30;99.90;;;;;;4890755;29;20448;-92
2022/08/12 02:14:30;;;;;;;0.10;0.10;;;15.30;99.90;;;;;;4896881;29;21027;-93
2022/08/12 02:17:06;;;;;;;0.10;0.10;;;15.30;99.90;;;;;;4886863;29;20477;-94
2022/08/12 02:19:57;;;;;;;0.10;0.10;;;15.30;99.90;;;;;;4900365;29;20523;-93
2022/08/12 02:22:37;;;;;;;0.10;0.10;;;15.10;99.90;;;;;;4897537;29;20963;-92
2022/08/12 02:25:08;;;;;;;0.10;0.10;;;15.10;99.90;;;;;;4893076;29;20533;-91
2022/08/12 02:27:38;;;;;;;0.10;0.10;;;15.10;99.90;;;;;;4898378;29;20797;-91
2022/08/12 02:30:07;;;;;;;0.10;0.10;;;15.10;99.90;;;;;;4895915;29;20444;-90
2022/08/12 02:32:37;;;;;;;0.10;0.10;;;15.10;99.90;;;;;;4886736;29;20445;-91
2022/08/12 02:35:06;;;;;;;0.10;0.10;;;15.10;99.90;;;;;;4892091;29;20481;-93
2022/08/12 02:37:34;;;;;;;0.10;0.10;;;15.00;99.90;;;;;;4890660;29;20481;-94
2022/08/12 02:40:02;;;;;;;0.10;0.10;;;15.00;99.90;;;;;;4897441;29;20468;-95
2022/08/12 02:42:31;;;;;;;0.10;0.10;;;14.90;99.90;;;;;;4892755;29;20457;-92
2022/08/12 02:44:59;;;;;;;0.10;0.10;;;15.00;99.90;;;;;;4896111;29;20449;-90
2022/08/12 02:47:30;;;;;;;0.10;0.10;;;15.00;99.90;;;;;;4891745;29;20441;-94
2022/08/12 02:49:57;;;;;;;0.10;0.10;;;14.90;99.90;;;;;;4891696;29;20453;-93
2022/08/12 02:52:25;;;;;;;0.10;0.10;;;15.00;99.90;;;;;;4896288;29;20449;-91
2022/08/12 02:54:55;;;;;;;0.10;0.10;;;14.90;99.90;;;;;;4898292;29;20573;-91
2022/08/12 02:57:22;;;;;;;0.10;0.10;;;14.90;99.90;;;;;;4892861;29;20489;-91
2022/08/12 02:59:49;;;;;;;0.10;0.10;;;14.80;99.90;;;;;;4897696;29;21154;-92
2022/08/12 03:02:20;;;;;;;0.10;0.10;;;14.90;99.90;;;;;;4892038;29;22856;-91
2022/08/12 03:04:51;;;;;;;0.10;0.10;;;14.80;99.90;;;;;;4909759;29;20927;-91
2022/08/12 03:07:28;;;;;;;0.10;0.10;;;14.80;99.90;;;;;;4892157;29;20544;-91
2022/08/12 03:10:04;;;;;;;0.10;0.10;;;14.90;99.90;;;;;;4895977;29;20469;-92
2022/08/12 03:12:39;;;;;;;0.10;0.10;;;14.90;99.90;;;;;;4897021;29;20461;-92
2022/08/12 03:15:08;;;;;;;0.10;0.10;;;14.70;99.90;;;;;;4909427;29;20492;-91
2022/08/12 03:17:38;;;;;;;0.10;0.10;;;14.70;99.90;;;;;;4896919;29;21006;-91
2022/08/12 03:20:04;;;;;;;0.10;0.10;;;14.70;99.90;;;;;;4885889;29;20528;-91
2022/08/12 03:22:31;;;;;;;0.10;0.10;;;14.60;99.90;;;;;;4909719;29;20584;-92
2022/08/12 03:25:00;;;;;;;0.10;0.10;;;14.50;99.90;;;;;;4894982;29;20570;-92
2022/08/12 03:27:27;;;;;;;0.10;0.10;;;14.60;99.90;;;;;;4896647;29;20456;-91
2022/08/12 03:29:55;;;;;;;0.10;0.10;;;14.60;99.90;;;;;;4895811;29;20946;-92
2022/08/12 03:32:24;;;;;;;0.10;0.10;;;14.50;99.90;;;;;;4891203;29;20500;-91
2022/08/12 03:34:50;;;;;;;0.10;0.10;;;14.50;99.90;;;;;;4901678;29;20449;-90
2022/08/12 03:37:19;;;;;;;0.10;0.10;;;14.50;99.90;;;;;;4893933;29;20461;-91
2022/08/12 03:39:45;;;;;;;0.10;0.10;;;14.50;99.90;;;;;;4892761;29;20452;-91
2022/08/12 03:42:28;;;;;;;0.10;0.10;;;14.50;99.90;;;;;;4897472;29;20449;-92
2022/08/12 04:01:58;;;;;;;0.10;0.10;;;14.50;99.90;;;;;;4891668;29;20460;-91
2022/08/12 04:04:27;;;;;;;0.10;0.10;;;14.40;99.90;;;;;;4905637;29;20529;-91
2022/08/12 04:06:52;;;;;;;0.10;0.10;;;14.30;99.90;;;;;;4891606;29;20847;-90
2022/08/12 04:09:21;;;;;;;0.10;0.10;;;14.30;99.90;;;;;;4894212;29;20457;-90
2022/08/12 04:14:33;;;;;;;0.10;0.10;;;14.20;99.90;;;;;;4896047;29;20491;-91
2022/08/12 04:16:59;;;;;;;0.10;0.10;;;14.20;99.90;;;;;;4895354;29;20488;-89
2022/08/12 04:19:25;;;;;;;0.10;0.10;;;14.30;99.90;;;;;;4890259;29;20456;-90
2022/08/12 04:21:51;;;;;;;0.10;0.10;;;14.30;99.90;;;;;;4896117;29;20453;-92
2022/08/12 04:24:18;;;;;;;0.10;0.10;;;14.30;99.90;;;;;;4890786;29;20437;-92
2022/08/12 04:26:44;;;;;;;0.10;0.10;;;14.30;99.90;;;;;;4894971;29;20528;-93
2022/08/12 04:29:10;;;;;;;0.10;0.10;;;14.40;99.90;;;;;;4895203;29;20556;-92
2022/08/12 04:31:38;;;;;;;0.10;0.10;;;14.50;99.90;;;;;;4895275;29;20197;-92
2022/08/12 04:34:06;;;;;;;0.10;0.10;;;14.50;99.90;;;;;;4894020;29;20189;-92
2022/08/12 04:36:32;;;;;;;0.10;0.10;;;14.60;99.90;;;;;;4892713;29;20488;-90
2022/08/12 04:38:58;;;;;;;0.10;0.10;;;14.70;99.90;;;;;;4883376;29;20445;-92
2022/08/12 04:41:26;;;;;;;0.10;0.10;;;14.60;99.90;;;;;;4887851;29;20453;-90
2022/08/12 04:43:52;;;;;;;0.10;0.10;;;14.70;99.90;;;;;;4886969;29;20488;-91
2022/08/12 04:46:18;;;;;;;0.10;0.10;;;14.70;99.90;;;;;;4894476;29;20616;-92
2022/08/12 04:48:45;;;;;;;0.10;0.10;;;14.70;99.90;;;;;;4904606;29;20455;-92
2022/08/12 04:51:12;;;;;;;0.10;0.10;;;14.80;99.90;;;;;;4896404;29;20449;-91
2022/08/12 04:53:40;;;;;;;0.10;0.10;;;14.70;99.90;;;;;;4900648;29;20434;-92
2022/08/12 04:56:06;;;;;;;0.10;0.10;;;14.80;99.90;;;;;;4912660;29;20484;-91
2022/08/12 04:58:33;;;;;;;0.10;0.10;;;14.80;99.90;;;;;;4894539;29;21012;-91
2022/08/12 05:01:00;;;;;;;0.10;0.10;;;14.70;99.90;;;;;;4891618;29;20611;-91
2022/08/12 05:03:26;;;;;;;0.10;0.10;;;14.70;99.90;;;;;;4891688;29;20991;-91
2022/08/12 05:05:55;;;;;;;0.10;0.10;;;14.80;99.90;;;;;;4886687;29;20450;-93
2022/08/12 05:08:21;;;;;;;0.10;0.10;;;14.90;99.90;;;;;;4909040;29;20456;-96
2022/08/12 05:10:47;;;;;;;0.10;0.10;;;15.00;99.90;;;;;;4895759;29;20829;-96
2022/08/12 05:13:17;;;;;;;0.10;0.10;;;15.10;99.90;;;;;;4891836;29;20203;-96
2022/08/12 05:15:46;;;;;;;0.10;0.10;;;15.10;99.90;;;;;;4912719;29;20216;-96
2022/08/12 05:18:13;;;;;;;0.10;0.10;;;15.30;99.90;;;;;;4892823;29;20456;-91
2022/08/12 05:20:42;;;;;;;0.10;0.10;;;15.40;99.90;;;;;;4896632;29;20449;-96
2022/08/12 05:23:10;;;;;;;0.10;0.10;;;15.50;99.90;;;;;;4896418;29;20524;-95
2022/08/12 05:25:36;;;;;;;0.10;0.10;;;15.70;99.90;;;;;;4897488;29;20477;-95
2022/08/12 05:28:04;;;;;;;0.10;0.10;;;15.80;99.90;;;;;;4897037;29;20964;-96
2022/08/12 05:30:32;;;;;;;0.10;0.10;;;15.80;99.90;;;;;;4900472;29;20197;-95
2022/08/12 05:32:58;;;;;;;0.10;0.10;;;16.10;99.90;;;;;;4897982;29;20834;-95
2022/08/12 05:35:24;;;;;;;0.10;0.10;;;16.10;99.90;;;;;;4886892;29;20517;-96
2022/08/12 05:38:54;;;;;;;0.10;0.10;;;16.40;99.90;;;;;;4895629;29;20444;-94
2022/08/12 05:40:40;;;;;;;0.10;0.10;;;16.60;99.90;;;;;;4895981;29;20288;-92
2022/08/12 05:43:06;;;;;;;0.10;0.10;;;16.60;99.90;;;;;;4896196;29;20461;-94
2022/08/12 05:45:32;;;;;;;0.10;0.10;;;16.80;99.90;;;;;;4910743;29;20433;-93
2022/08/12 05:47:58;;;;;;;0.10;0.10;;;17.00;99.90;;;;;;4895910;29;20441;-92
2022/08/12 05:50:24;;;;;;;0.10;0.10;;;17.40;99.90;;;;;;4893842;29;20197;-90
2022/08/12 05:52:50;;;;;;;0.10;0.10;;;17.60;99.90;;;;;;4893658;29;20200;-91
2022/08/12 05:55:16;;;;;;;0.10;0.10;;;17.70;99.90;;;;;;4885535;29;20486;-94
2022/08/12 05:57:47;;;;;;;0.10;0.10;;;18.00;99.90;;;;;;4900758;29;20463;-88
2022/08/12 06:00:15;;;;;;;0.10;0.10;;;18.00;99.90;;;;;;4892936;29;20200;-96
2022/08/12 06:02:41;;;;;;;0.10;0.10;;;18.10;99.90;;;;;;4894336;29;20452;-92
2022/08/12 06:05:09;;;;;;;0.10;0.10;;;18.30;99.90;;;;;;4904033;29;20454;-93
2022/08/12 06:07:44;;;;;;;0.10;0.10;;;18.40;99.90;;;;;;4891255;29;20363;-91
2022/08/12 06:10:10;;;;;;;0.10;0.10;;;18.60;99.90;;;;;;4896526;29;20436;-91
2022/08/12 06:12:35;;;;;;;0.10;0.10;;;18.70;99.90;;;;;;4912592;29;20499;-91
2022/08/12 06:15:02;;;;;;;0.10;0.10;;;18.70;99.90;;;;;;4894647;29;20489;-93
2022/08/12 06:17:29;;;;;;;0.10;0.10;;;18.80;99.90;;;;;;4902526;29;20181;-95
2022/08/12 06:19:55;;;;;;;0.10;0.00;;;18.90;99.90;;;;;;4892448;29;20460;-93
2022/08/12 06:22:21;;;;;;;0.10;0.10;;;19.00;99.90;;;;;;4895693;29;20505;-92
2022/08/12 06:24:48;;;;;;;0.10;0.10;;;19.10;99.90;;;;;;4898388;29;20454;-92
2022/08/12 06:27:17;;;;;;;0.10;0.10;;;19.20;99.90;;;;;;4895897;29;20257;-90
2022/08/12 06:29:43;;;;;;;0.10;0.10;;;19.40;99.90;;;;;;4897737;29;20472;-93
2022/08/12 06:32:09;;;;;;;0.10;0.10;;;19.40;99.90;;;;;;4890621;29;20516;-93
2022/08/12 06:34:35;;;;;;;0.10;0.10;;;19.50;99.90;;;;;;4892949;29;20449;-91
2022/08/12 06:37:00;;;;;;;0.10;0.10;;;19.60;99.90;;;;;;4896533;29;20292;-96
2022/08/12 06:39:26;;;;;;;0.10;0.10;;;19.70;99.90;;;;;;4909838;29;20445;-95
2022/08/12 06:44:36;;;;;;;0.10;0.00;;;20.00;99.90;;;;;;4898871;29;20188;-90
2022/08/12 06:47:03;;;;;;;0.10;0.00;;;20.00;99.90;;;;;;4911692;29;20514;-91
2022/08/12 06:49:34;;;;;;;0.10;0.10;;;20.10;99.90;;;;;;4889491;29;20446;-93
2022/08/12 06:51:59;;;;;;;0.10;0.10;;;20.20;99.90;;;;;;4896344;29;20858;-93
2022/08/12 06:54:29;;;;;;;0.10;0.00;;;20.30;99.90;;;;;;4896161;29;20441;-90
2022/08/12 06:56:59;;;;;;;0.10;0.10;;;20.40;99.90;;;;;;4896885;29;20217;-93
2022/08/12 06:59:25;;;;;;;0.10;0.10;;;20.50;99.90;;;;;;4894855;29;20447;-95
2022/08/12 07:01:51;;;;;;;0.10;0.00;;;20.60;99.90;;;;;;4900780;29;20472;-90
2022/08/12 07:04:16;;;;;;;0.10;0.00;;;20.80;99.90;;;;;;4894664;29;20197;-92
2022/08/12 07:06:43;;;;;;;0.10;0.00;;;20.90;99.90;;;;;;4914811;29;20556;-95
2022/08/12 07:09:09;;;;;;;0.10;0.00;;;21.00;99.90;;;;;;4897720;29;20193;-91
2022/08/12 07:11:41;;;;;;;0.10;0.00;;;21.10;99.90;;;;;;4898310;29;20448;-94
2022/08/12 07:14:08;;;;;;;0.10;0.10;;;21.20;99.90;;;;;;4899400;29;20824;-94
2022/08/12 07:16:52;;;;;;;0.10;0.00;;;21.30;99.90;;;;;;4897324;29;20501;-95
2022/08/12 07:19:19;;;;;;;0.10;0.00;;;21.40;99.90;;;;;;4891462;29;20453;-93
2022/08/12 07:21:46;;;;;;;0.10;0.00;;;21.60;99.90;;;;;;4888455;29;20462;-90
2022/08/12 07:24:13;;;;;;;0.10;0.00;;;21.60;99.90;;;;;;4897111;29;20954;-92
2022/08/12 07:26:41;;;;;;;0.10;0.00;;;21.70;99.90;;;;;;4900321;29;20473;-93
2022/08/12 07:29:08;;;;;;;0.10;0.10;;;21.80;99.90;;;;;;4913116;29;20468;-93
2022/08/12 07:31:37;;;;;;;0.10;0.00;;;21.80;99.90;;;;;;4897596;29;20452;-90
2022/08/12 07:34:04;;;;;;;0.10;0.00;;;21.90;99.90;;;;;;4896842;29;20968;-93
2022/08/12 07:36:31;;;;;;;0.10;0.00;;;22.10;99.90;;;;;;4912350;29;20918;-91
2022/08/12 07:38:57;;;;;;;0.10;0.00;;;22.20;99.90;;;;;;4911608;29;20957;-89
2022/08/12 07:41:26;;;;;;;0.10;0.00;;;22.30;99.90;;;;;;4876006;29;20466;-90
2022/08/12 07:43:55;;;;;;;0.10;0.00;;;22.30;99.90;;;;;;4894772;29;20198;-91
2022/08/12 07:46:24;;;;;;;0.10;0.10;;;22.40;99.90;;;;;;4900650;29;20453;-92
2022/08/12 07:48:58;;;;;;;0.10;0.00;;;22.60;99.90;;;;;;4896918;29;20464;-91
2022/08/12 07:51:24;;;;;;;0.10;0.00;;;22.60;99.90;;;;;;4898200;29;20441;-91
2022/08/12 07:53:53;;;;;;;0.10;0.00;;;22.70;99.90;;;;;;4896411;29;20932;-90
2022/08/12 07:56:22;;;;;;;0.10;0.00;;;22.80;99.90;;;;;;4913011;29;20929;-89
2022/08/12 07:58:48;;;;;;;0.10;0.00;;;23.00;99.90;;;;;;4898110;29;20436;-89
2022/08/12 08:01:20;;;;;;;0.10;0.00;;;23.20;99.90;;;;;;4894874;29;20449;-91
2022/08/12 08:06:33;;;;;;;0.10;0.00;;;23.30;99.90;;;;;;4896473;29;20496;-88
2022/08/12 08:08:59;;;;;;;0.10;0.00;;;23.30;99.90;;;;;;4896923;29;20417;-93
2022/08/12 08:14:10;;;;;;;0.10;0.00;;;23.80;99.90;;;;;;4896219;29;20508;-87
2022/08/12 08:16:39;;;;;;;0.10;0.00;;;23.90;99.90;;;;;;4896126;29;20611;-87
2022/08/12 08:19:08;;;;;;;0.10;0.00;;;23.80;99.90;;;;;;4895294;29;20477;-89
2022/08/12 08:21:34;;;;;;;0.10;0.00;;;24.00;99.90;;;;;;4893731;29;20544;-89
2022/08/12 08:24:13;;;;;;;0.10;0.00;;;24.10;99.90;;;;;;4895109;29;20547;-90
2022/08/12 08:26:39;;;;;;;0.10;0.00;;;24.30;99.90;;;;;;4893761;29;20475;-87
2022/08/12 08:29:07;;;;;;;0.10;0.00;;;24.40;99.90;;;;;;4897561;29;20442;-88
2022/08/12 08:31:32;;;;;;;0.10;0.00;;;24.60;99.90;;;;;;4894385;29;20464;-87
2022/08/12 08:34:00;;;;;;;0.10;0.00;;;24.80;99.90;;;;;;4894715;29;20457;-88
2022/08/12 08:36:26;;;;;;;0.10;0.00;;;24.80;99.90;;;;;;4894401;29;20847;-87
2022/08/12 08:38:51;;;;;;;0.10;0.00;;;25.10;99.90;;;;;;4894167;29;20457;-85
2022/08/12 08:44:01;;;;;;;0.10;0.10;;;25.40;99.90;;;;;;4891552;29;20195;-84
2022/08/12 08:46:27;;;;;;;0.10;0.00;;;25.40;99.90;;;;;;4895553;29;20429;-85
2022/08/12 08:48:53;;;;;;;0.10;0.00;;;25.60;99.90;;;;;;4893359;29;20201;-86
2022/08/12 08:51:22;;;;;;;0.10;0.00;;;25.60;99.90;;;;;;4895307;29;20189;-87
2022/08/12 08:53:48;;;;;;;0.10;0.00;;;25.80;99.90;;;;;;4895369;29;20454;-84
2022/08/12 08:56:13;;;;;;;0.10;0.00;;;25.70;99.90;;;;;;4894256;29;20489;-85
2022/08/12 08:58:39;;;;;;;0.10;0.00;;;26.00;99.90;;;;;;4893978;29;20193;-84
2022/08/12 09:01:05;;;;;;;0.10;0.00;;;26.10;99.90;;;;;;4894704;29;20201;-87
2022/08/12 09:03:32;;;;;;;0.10;0.00;;;26.10;99.90;;;;;;4894352;29;20320;-85
2022/08/12 09:06:00;;;;;;;0.10;0.00;;;26.10;99.90;;;;;;4895151;29;20231;-87
2022/08/12 09:08:26;;;;;;;0.10;0.00;;;26.30;99.90;;;;;;4894968;29;20465;-87
2022/08/12 09:10:57;;;;;;;0.10;0.00;;;26.60;99.90;;;;;;4892878;29;20980;-86
2022/08/12 09:13:33;;;;;;;0.10;0.00;;;26.80;99.90;;;;;;4892353;29;20516;-86
2022/08/12 09:15:59;;;;;;;0.10;0.00;;;26.80;99.90;;;;;;4893796;29;21005;-86
2022/08/12 09:18:26;;;;;;;0.10;0.00;;;27.20;99.90;;;;;;4894408;29;20996;-86
2022/08/12 09:20:52;;;;;;;0.10;0.00;;;27.10;99.90;;;;;;4893865;29;20489;-85
2022/08/12 09:23:18;;;;;;;0.10;0.00;;;27.10;99.90;;;;;;4895256;29;20528;-86
2022/08/12 09:25:44;;;;;;;0.10;0.00;;;26.70;99.90;;;;;;4895218;29;20185;-87
2022/08/12 09:28:10;;;;;;;0.10;0.00;;;27.20;99.90;;;;;;4893710;29;20425;-88
2022/08/12 09:30:37;;;;;;;0.10;0.00;;;27.40;99.90;;;;;;4892702;29;20524;-88
2022/08/12 09:33:05;;;;;;;0.10;0.00;;;27.70;99.90;;;;;;4890681;29;21060;-87
2022/08/12 09:35:36;;;;;;;0.10;0.00;;;28.00;99.90;;;;;;4891189;29;20485;-86
2022/08/12 09:38:01;;;;;;;0.10;0.00;;;28.20;99.90;;;;;;4895075;29;20425;-87
2022/08/12 09:40:28;;;;;;;0.10;0.00;;;28.00;99.90;;;;;;4893617;29;20437;-86
2022/08/12 09:45:40;;;;;;;0.10;0.00;;;28.30;99.90;;;;;;4897934;29;20534;-87
2022/08/12 09:48:07;;;;;;;0.10;0.00;;;28.60;99.90;;;;;;4911550;29;20457;-88
2022/08/12 09:50:34;;;;;;;0.10;0.00;;;28.70;99.90;;;;;;4897280;29;20938;-86
2022/08/12 09:53:15;;;;;;;0.10;0.00;;;28.80;99.90;;;;;;4897454;29;20838;-87
2022/08/12 09:55:51;;;;;;;0.10;0.00;;;28.80;99.90;;;;;;4897342;29;20497;-87
2022/08/12 09:58:17;;;;;;;0.10;0.00;;;28.70;99.90;;;;;;4898703;29;20520;-88
2022/08/12 10:00:46;;;;;;;0.10;0.00;;;28.80;99.90;;;;;;4897302;29;20552;-88
2022/08/12 10:03:15;;;;;;;0.10;0.00;;;28.90;99.90;;;;;;4896752;29;20460;-88
2022/08/12 10:05:43;;;;;;;0.10;0.00;;;29.30;99.90;;;;;;4896125;29;21041;-88
2022/08/12 10:08:10;;;;;;;0.10;0.00;;;29.40;99.90;;;;;;4897705;29;20463;-87
2022/08/12 10:13:41;;;;;;;0.10;0.00;;;29.60;99.90;;;;;;4877636;29;20944;-86
2022/08/12 10:16:21;;;;;;;0.10;0.00;;;29.90;98.90;;;;;;4897406;29;20640;-85
2022/08/12 10:18:54;;;;;;;0.10;0.00;;;29.80;99.90;;;;;;4895148;29;20453;-86
2022/08/12 10:21:35;;;;;;;0.10;0.00;;;30.10;99.20;;;;;;4897294;29;20464;-87
2022/08/12 10:24:03;;;;;;;0.10;0.00;;;29.90;97.20;;;;;;4893974;29;20468;-86
2022/08/12 10:31:59;;;;;;;0.10;0.00;;;30.80;99.90;;;;;;4897877;29;21052;-86
2022/08/12 10:34:26;;;;;;;0.10;0.00;;;30.70;99.90;;;;;;4896803;29;20444;-86
2022/08/12 10:36:57;;;;;;;0.10;0.00;;;31.10;99.90;;;;;;4896231;29;20815;-87
2022/08/12 10:39:24;;;;;;;0.10;0.00;;;31.80;99.90;;;;;;4897755;29;20502;-86
2022/08/12 10:44:35;;;;;;;0.10;0.00;;;31.90;94.10;;;;;;4897049;29;20903;-86
2022/08/12 10:47:01;;;;;;;0.10;0.00;;;32.20;95.00;;;;;;4896444;29;20446;-85
2022/08/12 10:49:30;;;;;;;0.10;0.00;;;32.20;93.90;;;;;;4895676;29;20457;-86
2022/08/12 10:51:56;;;;;;;0.10;0.00;;;32.20;96.50;;;;;;4896829;29;20441;-85
2022/08/12 10:54:26;;;;;;;0.10;0.00;;;32.30;94.70;;;;;;4895959;29;20433;-85
2022/08/12 10:56:52;;;;;;;0.10;0.00;;;32.20;94.00;;;;;;4895887;29;20492;-85
2022/08/12 10:59:20;;;;;;;0.10;0.00;;;32.00;94.90;;;;;;4896870;29;20997;-84
2022/08/12 11:01:49;;;;;;;0.10;0.00;;;32.50;95.30;;;;;;4896066;29;20472;-84
2022/08/12 11:04:15;;;;;;;0.00;0.00;;;33.00;95.90;;;;;;4894049;29;20971;-84
2022/08/12 11:06:49;;;;;;;0.00;0.00;;;32.90;95.10;;;;;;4895561;29;21028;-84
2022/08/12 11:09:30;;;;;;;0.10;0.00;;;33.30;94.50;;;;;;4895245;29;21033;-85
2022/08/12 11:11:58;;;;;;;0.10;0.00;;;33.40;94.80;;;;;;4897079;29;20521;-85
2022/08/12 11:14:32;;;;;;;0.10;0.00;;;33.70;93.90;;;;;;4896180;29;20829;-84
2022/08/12 11:17:12;;;;;;;0.10;0.00;;;33.80;93.80;;;;;;4896037;29;20579;-84
2022/08/12 11:19:40;;;;;;;0.10;0.07;;;33.40;92.80;;;;;;4896121;29;20467;-85
2022/08/12 11:22:06;;;;;;;0.10;0.00;;;34.10;93.00;;;;;;4895041;29;20472;-84
2022/08/12 11:24:32;;;;;;;0.10;0.00;;;34.30;92.60;;;;;;4896250;29;20445;-83
2022/08/12 11:27:00;;;;;;;0.10;0.00;;;34.10;93.10;;;;;;4896203;29;20433;-85
2022/08/12 11:29:27;;;;;;;0.10;0.00;;;34.40;92.70;;;;;;4895426;29;20457;-84
2022/08/12 11:31:53;;;;;;;0.10;0.00;;;34.30;92.10;;;;;;4896874;29;20937;-85
2022/08/12 11:34:19;;;;;;;0.10;0.00;;;34.30;93.00;;;;;;4896052;29;20520;-83
2022/08/12 11:36:56;;;;;;;0.10;0.00;;;34.30;92.00;;;;;;4896307;29;20836;-85
2022/08/12 11:39:23;;;;;;;0.10;0.00;;;34.70;91.30;;;;;;4882606;29;20877;-85
2022/08/12 11:41:49;;;;;;;0.00;0.00;;;34.90;92.70;;;;;;4895831;29;20518;-84
2022/08/12 11:44:15;;;;;;;0.10;0.00;;;35.30;92.00;;;;;;4896608;29;20525;-84
2022/08/12 11:46:41;;;;;;;0.10;0.00;;;35.00;90.20;;;;;;4893922;29;20858;-84
2022/08/12 11:49:07;;;;;;;0.10;0.00;;;35.10;88.90;;;;;;4887506;29;20593;-84
2022/08/12 11:51:34;;;;;;;0.10;0.00;;;34.80;91.80;;;;;;4877718;29;20494;-83
2022/08/12 11:54:00;;;;;;;0.10;0.00;;;35.30;89.80;;;;;;4877783;29;20437;-83
2022/08/12 11:56:26;;;;;;;0.10;0.00;;;35.40;89.90;;;;;;4885617;29;20489;-84
2022/08/12 11:58:52;;;;;;;0.10;0.00;;;35.50;90.40;;;;;;4908426;29;20196;-85
2022/08/12 12:01:17;;;;;;;0.10;0.00;;;35.30;88.90;;;;;;4895629;29;20461;-85
2022/08/12 12:03:43;;;;;;;0.10;0.00;;;35.50;89.10;;;;;;4895187;29;20196;-84
2022/08/12 12:06:08;;;;;;;0.10;0.00;;;35.30;89.70;;;;;;4892472;29;20280;-84
2022/08/12 12:08:34;;;;;;;0.10;0.00;;;35.50;88.60;;;;;;4894752;29;20239;-85
2022/08/12 12:11:00;;;;;;;0.10;0.00;;;35.70;87.60;;;;;;4892480;29;20198;-84
2022/08/12 12:13:25;;;;;;;0.10;0.00;;;35.70;88.50;;;;;;4895704;29;20928;-86
2022/08/12 12:15:51;;;;;;;0.10;0.00;;;35.90;89.90;;;;;;4890602;29;20224;-85
2022/08/12 12:18:28;;;;;;;0.10;0.00;;;35.90;87.60;;;;;;4893962;29;20212;-81
2022/08/12 12:20:58;;;;;;;0.10;0.00;;;36.40;87.60;;;;;;4894357;29;20229;-82
2022/08/12 12:23:23;;;;;;;0.10;0.00;;;36.00;86.60;;;;;;4895247;29;20497;-82
2022/08/12 12:25:49;;;;;;;0.10;0.00;;;35.90;85.70;;;;;;4895187;29;20465;-82
2022/08/12 12:28:15;;;;;;;0.10;0.00;;;35.70;85.90;;;;;;4895059;29;20207;-82
2022/08/12 12:30:41;;;;;;;0.10;0.00;;;36.30;85.50;;;;;;4895886;29;20215;-82
2022/08/12 12:33:09;;;;;;;0.10;0.00;;;36.40;85.90;;;;;;4893578;29;20473;-83
2022/08/12 12:35:35;;;;;;;0.10;0.00;;;36.60;87.70;;;;;;4893049;29;20548;-81
2022/08/12 12:38:06;;;;;;;0.10;0.00;;;36.70;83.40;;;;;;4895923;29;20441;-82
2022/08/12 12:40:33;;;;;;;0.10;0.00;;;36.10;82.30;;;;;;4895715;29;20436;-81
2022/08/12 12:42:59;;;;;;;0.10;0.00;;;35.80;83.80;;;;;;4894265;29;20929;-83
2022/08/12 12:45:26;;;;;;;0.10;0.00;;;35.90;84.10;;;;;;4892939;29;20450;-83
2022/08/12 12:47:57;;;;;;;0.10;0.00;;;35.40;83.30;;;;;;4894360;29;20252;-83
2022/08/12 12:50:24;;;;;;;0.10;0.00;;;35.40;83.70;;;;;;4891238;29;20453;-82
2022/08/12 12:52:50;;;;;;;0.10;0.00;;;35.60;84.50;;;;;;4894026;29;20472;-82
2022/08/12 12:55:17;;;;;;;0.10;0.00;;;35.30;85.00;;;;;;4893855;29;20484;-81
2022/08/12 12:57:42;;;;;;;0.10;0.00;;;35.60;84.40;;;;;;4894664;29;20476;-81
2022/08/12 13:00:15;;;;;;;0.10;0.00;;;35.50;81.90;;;;;;4893690;29;21187;-82
2022/08/12 13:02:51;;;;;;;0.10;0.00;;;35.30;82.00;;;;;;4907210;29;20184;-83
2022/08/12 13:05:37;;;;;;;0.10;0.00;;;35.40;81.70;;;;;;4893184;29;20488;-83
2022/08/12 13:08:29;;;;;;;0.10;0.00;;;35.30;81.10;;;;;;4888119;29;20506;-83
2022/08/12 13:11:00;;;;;;;0.10;0.00;;;35.60;83.90;;;;;;4884798;29;20858;-82
2022/08/12 13:13:28;;;;;;;0.10;0.00;;;35.60;82.90;;;;;;4907249;29;20452;-83
2022/08/12 13:15:56;;;;;;;0.10;0.00;;;36.00;83.90;;;;;;4890439;29;20584;-83
2022/08/12 13:18:24;;;;;;;0.10;0.00;;;36.10;83.00;;;;;;4895766;29;20480;-87
2022/08/12 13:20:50;;;;;;;0.00;0.00;;;35.70;83.30;;;;;;4898841;29;20825;-86
2022/08/12 13:23:16;;;;;;;0.00;0.00;;;35.20;80.50;;;;;;4914850;29;20457;-86
2022/08/12 13:25:43;;;;;;;0.10;0.00;;;35.30;82.90;;;;;;4900628;29;20181;-87
2022/08/12 13:28:22;;;;;;;0.10;0.00;;;35.40;80.60;;;;;;4899643;29;20520;-87
2022/08/12 13:30:49;;;;;;;0.10;0.00;;;35.70;81.40;;;;;;4899153;29;20464;-86
2022/08/12 13:33:15;;;;;;;0.10;0.00;;;35.10;80.20;;;;;;4901067;29;20452;-87
2022/08/12 13:35:41;;;;;;;0.10;0.00;;;35.20;81.70;;;;;;4898192;29;20489;-88
2022/08/12 13:38:09;;;;;;;0.10;0.00;;;34.80;82.50;;;;;;4898798;29;20449;-87
2022/08/12 13:40:35;;;;;;;0.10;0.00;;;34.60;78.90;;;;;;4898660;29;20548;-88
2022/08/12 13:43:05;;;;;;;0.10;0.00;;;34.90;79.70;;;;;;4898713;29;20440;-87
2022/08/12 13:45:32;;;;;;;0.10;0.00;;;34.70;81.60;;;;;;4913806;29;20462;-87
2022/08/12 13:47:59;;;;;;;0.10;0.00;;;34.50;80.90;;;;;;4899832;29;20455;-84
2022/08/12 13:50:31;;;;;;;0.10;0.00;;;34.40;80.70;;;;;;4899864;29;20516;-87
2022/08/12 13:52:59;;;;;;;0.10;0.00;;;34.60;82.60;;;;;;4896978;29;20456;-86
2022/08/12 13:55:25;;;;;;;0.10;0.00;;;34.70;80.10;;;;;;4899374;29;20503;-87
2022/08/12 13:57:54;;;;;;;0.10;0.00;;;34.70;79.60;;;;;;4900343;29;20520;-86
2022/08/12 14:00:22;;;;;;;0.10;0.00;;;34.20;79.40;;;;;;4901036;29;20940;-89
2022/08/12 14:02:48;;;;;;;0.10;0.00;;;33.90;81.90;;;;;;4899477;29;20512;-89
2022/08/12 14:05:14;;;;;;;0.10;0.00;;;34.00;83.90;;;;;;4900002;29;20876;-90
2022/08/12 14:07:56;;;;;;;0.10;0.00;;;33.80;80.10;;;;;;4899401;29;20735;-86
2022/08/12 14:10:36;;;;;;;0.10;0.00;;;33.60;82.70;;;;;;4899777;29;20444;-87
2022/08/12 14:13:14;;;;;;;0.10;0.00;;;33.90;82.30;;;;;;4899757;29;20444;-87
2022/08/12 14:15:43;;;;;;;0.10;0.00;;;33.70;82.40;;;;;;4858524;29;20521;-85
2022/08/12 14:18:23;;;;;;;0.10;0.00;;;33.30;81.70;;;;;;4863740;29;20439;-87
2022/08/12 14:20:59;;;;;;;0.10;0.00;;;33.50;80.40;;;;;;4863669;29;20419;-86
2022/08/12 14:23:27;;;;;;;0.10;0.00;;;33.80;81.10;;;;;;4861965;29;20450;-86
2022/08/12 14:25:55;;;;;;;0.10;0.00;;;33.60;80.80;;;;;;4864213;29;20455;-86
2022/08/12 14:28:22;;;;;;;0.10;0.00;;;33.70;82.20;;;;;;4876790;29;20435;-86
2022/08/12 14:30:57;;;;;;;0.10;0.00;;;33.30;81.70;;;;;;4859293;29;20458;-87
2022/08/12 14:33:27;;;;;;;0.10;0.00;;;33.30;80.40;;;;;;4860081;29;20486;-87
2022/08/12 14:35:54;;;;;;;0.10;0.00;;;33.30;83.90;;;;;;4860780;29;20490;-88
2022/08/12 14:38:28;;;;;;;0.10;0.00;;;33.60;82.90;;;;;;4859173;29;20892;-87
2022/08/12 14:41:00;;;;;;;0.10;0.00;;;33.60;80.90;;;;;;4860156;29;20463;-85